sensor_id;sensor_type;location;lat;lon;timestamp;temperature;humidity
52555;DHT22;38455;52.710;6.502;2023-03-11T00:01:49;-0.10;99.90
52555;DHT22;38455;52.710;6.502;2023-03-11T00:04:15;0.00;99.90
52555;DHT22;38455;52.710;6.502;2023-03-11T00:06:40;0.10;99.90
52555;DHT22;38455;52.710;6.502;2023-03-11T00:09:06;0.10;99.90
52555;DHT22;38455;52.710;6.502;2023-03-11T00:11:32;0.10;99.90
52555;DHT22;38455;52.710;6.502;2023-03-11T00:13:58;0.10;99.90
52555;DHT22;38455;52.710;6.502;2023-03-11T00:16:23;0.00;99.90
52555;DHT22;38455;52.710;6.502;2023-03-11T00:18:50;0.10;99.90
52555;DHT22;38455;52.710;6.502;2023-03-11T00:21:17;0.10;99.90
52555;DHT22;38455;52.710;6.502;2023-03-11T00:23:45;0.10;99.90
52555;DHT22;38455;52.710;6.502;2023-03-11T00:26:11;0.10;99.90
52555;DHT22;38455;52.710;6.502;2023-03-11T00:28:37;0.20;99.90
52555;DHT22;38455;52.710;6.502;2023-03-11T00:31:03;0.20;99.90
52555;DHT22;38455;52.710;6.502;2023-03-11T00:33:29;0.30;99.90
52555;DHT22;38455;52.710;6.502;2023-03-11T00:35:54;0.30;99.90
52555;DHT22;38455;52.710;6.502;2023-03-11T00:38:20;0.30;99.90
52555;DHT22;38455;52.710;6.502;2023-03-11T00:40:47;0.40;99.90
52555;DHT22;38455;52.710;6.502;2023-03-11T00:43:14;0.30;99.90
52555;DHT22;38455;52.710;6.502;2023-03-11T00:45:39;0.30;99.90
52555;DHT22;38455;52.710;6.502;2023-03-11T00:48:06;0.40;99.90
52555;DHT22;38455;52.710;6.502;2023-03-11T00:50:34;0.30;99.90
52555;DHT22;38455;52.710;6.502;2023-03-11T00:53:00;0.30;99.90
52555;DHT22;38455;52.710;6.502;2023-03-11T00:55:29;0.30;99.90
52555;DHT22;38455;52.710;6.502;2023-03-11T00:58:00;0.20;99.90
52555;DHT22;38455;52.710;6.502;2023-03-11T01:00:28;0.20;99.90
52555;DHT22;38455;52.710;6.502;2023-03-11T01:02:55;0.10;99.90
52555;DHT22;38455;52.710;6.502;2023-03-11T01:05:23;0.10;99.90
52555;DHT22;38455;52.710;6.502;2023-03-11T01:07:49;0.10;99.90
52555;DHT22;38455;52.710;6.502;2023-03-11T01:10:15;0.10;99.90
52555;DHT22;38455;52.710;6.502;2023-03-11T01:12:41;0.00;99.90
52555;DHT22;38455;52.710;6.502;2023-03-11T01:15:10;0.00;99.90
52555;DHT22;38455;52.710;6.502;2023-03-11T01:17:39;-0.10;99.90
52555;DHT22;38455;52.710;6.502;2023-03-11T01:20:05;-0.10;99.90
52555;DHT22;38455;52.710;6.502;2023-03-11T01:22:33;-0.10;99.90
52555;DHT22;38455;52.710;6.502;2023-03-11T01:24:58;-0.10;99.90
52555;DHT22;38455;52.710;6.502;2023-03-11T01:27:24;0.00;99.90
52555;DHT22;38455;52.710;6.502;2023-03-11T01:29:50;0.00;99.90
52555;DHT22;38455;52.710;6.502;2023-03-11T01:32:15;0.00;99.90
52555;DHT22;38455;52.710;6.502;2023-03-11T01:34:41;0.10;99.90
52555;DHT22;38455;52.710;6.502;2023-03-11T01:37:06;0.10;99.90
52555;DHT22;38455;52.710;6.502;2023-03-11T01:39:32;0.10;99.90
52555;DHT22;38455;52.710;6.502;2023-03-11T01:41:58;0.10;99.90
52555;DHT22;38455;52.710;6.502;2023-03-11T01:44:23;0.10;99.90
52555;DHT22;38455;52.710;6.502;2023-03-11T01:49:19;0.00;99.90
52555;DHT22;38455;52.710;6.502;2023-03-11T01:51:48;0.00;99.90
52555;DHT22;38455;52.710;6.502;2023-03-11T01:54:25;0.00;99.90
52555;DHT22;38455;52.710;6.502;2023-03-11T01:56:51;0.00;99.90
52555;DHT22;38455;52.710;6.502;2023-03-11T01:59:31;0.00;99.90
52555;DHT22;38455;52.710;6.502;2023-03-11T02:02:10;0.00;99.90
52555;DHT22;38455;52.710;6.502;2023-03-11T02:04:39;-0.10;99.90
52555;DHT22;38455;52.710;6.502;2023-03-11T02:07:07;-0.10;99.90
52555;DHT22;38455;52.710;6.502;2023-03-11T02:09:33;-0.20;99.90
52555;DHT22;38455;52.710;6.502;2023-03-11T02:12:00;-0.20;99.90
52555;DHT22;38455;52.710;6.502;2023-03-11T02:14:26;-0.20;99.90
52555;DHT22;38455;52.710;6.502;2023-03-11T02:16:54;-0.10;99.90
52555;DHT22;38455;52.710;6.502;2023-03-11T02:19:50;-0.20;99.90
52555;DHT22;38455;52.710;6.502;2023-03-11T02:22:20;-0.20;99.90
52555;DHT22;38455;52.710;6.502;2023-03-11T02:27:38;-0.10;99.90
52555;DHT22;38455;52.710;6.502;2023-03-11T02:30:06;-0.10;99.90
52555;DHT22;38455;52.710;6.502;2023-03-11T02:32:32;-0.20;99.90
52555;DHT22;38455;52.710;6.502;2023-03-11T02:34:58;-0.10;99.90
52555;DHT22;38455;52.710;6.502;2023-03-11T02:37:24;-0.10;99.90
52555;DHT22;38455;52.710;6.502;2023-03-11T02:39:52;-0.10;99.90
52555;DHT22;38455;52.710;6.502;2023-03-11T02:42:27;-0.10;99.90
52555;DHT22;38455;52.710;6.502;2023-03-11T02:45:05;0.00;99.90
52555;DHT22;38455;52.710;6.502;2023-03-11T02:47:34;-0.10;99.90
52555;DHT22;38455;52.710;6.502;2023-03-11T02:50:00;-0.10;99.90
52555;DHT22;38455;52.710;6.502;2023-03-11T02:52:31;-0.10;99.90
52555;DHT22;38455;52.710;6.502;2023-03-11T02:54:58;-0.10;99.90
52555;DHT22;38455;52.710;6.502;2023-03-11T02:57:23;0.00;99.90
52555;DHT22;38455;52.710;6.502;2023-03-11T02:59:49;0.00;99.90
52555;DHT22;38455;52.710;6.502;2023-03-11T03:02:15;0.00;99.90
52555;DHT22;38455;52.710;6.502;2023-03-11T03:04:41;0.00;99.90
52555;DHT22;38455;52.710;6.502;2023-03-11T03:07:06;0.00;99.90
52555;DHT22;38455;52.710;6.502;2023-03-11T03:09:32;-0.20;99.90
52555;DHT22;38455;52.710;6.502;2023-03-11T03:11:59;-0.30;99.90
52555;DHT22;38455;52.710;6.502;2023-03-11T03:14:24;-0.40;99.90
52555;DHT22;38455;52.710;6.502;2023-03-11T03:16:50;-0.50;99.90
52555;DHT22;38455;52.710;6.502;2023-03-11T03:19:16;-0.70;99.90
52555;DHT22;38455;52.710;6.502;2023-03-11T03:21:41;-0.80;99.90
52555;DHT22;38455;52.710;6.502;2023-03-11T03:24:07;-0.90;99.90
52555;DHT22;38455;52.710;6.502;2023-03-11T03:26:33;-1.00;99.90
52555;DHT22;38455;52.710;6.502;2023-03-11T03:28:58;-1.10;99.90
52555;DHT22;38455;52.710;6.502;2023-03-11T03:31:24;-1.10;99.90
52555;DHT22;38455;52.710;6.502;2023-03-11T03:33:50;-1.10;99.90
52555;DHT22;38455;52.710;6.502;2023-03-11T03:36:16;-1.10;99.90
52555;DHT22;38455;52.710;6.502;2023-03-11T03:38:42;-1.10;99.90
52555;DHT22;38455;52.710;6.502;2023-03-11T03:41:08;-1.00;99.90
52555;DHT22;38455;52.710;6.502;2023-03-11T03:43:34;-1.00;99.90
52555;DHT22;38455;52.710;6.502;2023-03-11T03:46:01;-1.00;99.90
52555;DHT22;38455;52.710;6.502;2023-03-11T03:48:28;-1.10;99.90
52555;DHT22;38455;52.710;6.502;2023-03-11T03:50:54;-1.20;99.90
52555;DHT22;38455;52.710;6.502;2023-03-11T03:53:20;-1.30;99.90
52555;DHT22;38455;52.710;6.502;2023-03-11T03:55:46;-1.40;99.90
52555;DHT22;38455;52.710;6.502;2023-03-11T03:58:12;-1.50;99.90
52555;DHT22;38455;52.710;6.502;2023-03-11T04:00:38;-1.50;99.90
52555;DHT22;38455;52.710;6.502;2023-03-11T04:03:04;-1.60;99.90
52555;DHT22;38455;52.710;6.502;2023-03-11T04:05:31;-1.60;99.90
52555;DHT22;38455;52.710;6.502;2023-03-11T04:07:56;-1.70;99.90
52555;DHT22;38455;52.710;6.502;2023-03-11T04:10:22;-1.70;99.90
52555;DHT22;38455;52.710;6.502;2023-03-11T04:12:48;-1.70;99.90
52555;DHT22;38455;52.710;6.502;2023-03-11T04:15:13;-1.60;99.90
52555;DHT22;38455;52.710;6.502;2023-03-11T04:17:39;-1.60;99.90
52555;DHT22;38455;52.710;6.502;2023-03-11T04:20:05;-1.60;99.90
52555;DHT22;38455;52.710;6.502;2023-03-11T04:22:33;-1.60;99.90
52555;DHT22;38455;52.710;6.502;2023-03-11T04:24:58;-1.50;99.90
52555;DHT22;38455;52.710;6.502;2023-03-11T04:27:24;-1.50;99.90
52555;DHT22;38455;52.710;6.502;2023-03-11T04:29:50;-1.50;99.90
52555;DHT22;38455;52.710;6.502;2023-03-11T04:32:16;-1.50;99.90
52555;DHT22;38455;52.710;6.502;2023-03-11T04:34:41;-1.50;99.90
52555;DHT22;38455;52.710;6.502;2023-03-11T04:37:07;-1.50;99.90
52555;DHT22;38455;52.710;6.502;2023-03-11T04:39:33;-1.50;99.90
52555;DHT22;38455;52.710;6.502;2023-03-11T04:41:58;-1.50;99.90
52555;DHT22;38455;52.710;6.502;2023-03-11T04:44:24;-1.50;99.90
52555;DHT22;38455;52.710;6.502;2023-03-11T04:46:50;-1.60;99.90
52555;DHT22;38455;52.710;6.502;2023-03-11T04:49:16;-1.60;99.90
52555;DHT22;38455;52.710;6.502;2023-03-11T04:51:41;-1.60;99.90
52555;DHT22;38455;52.710;6.502;2023-03-11T04:54:07;-1.60;99.90
52555;DHT22;38455;52.710;6.502;2023-03-11T04:56:33;-1.60;99.90
52555;DHT22;38455;52.710;6.502;2023-03-11T04:58:59;-1.70;99.90
52555;DHT22;38455;52.710;6.502;2023-03-11T05:01:24;-1.80;99.90
52555;DHT22;38455;52.710;6.502;2023-03-11T05:03:50;-1.80;99.90
52555;DHT22;38455;52.710;6.502;2023-03-11T05:06:16;-1.90;99.90
52555;DHT22;38455;52.710;6.502;2023-03-11T05:08:42;-1.90;99.90
52555;DHT22;38455;52.710;6.502;2023-03-11T05:11:07;-2.00;99.90
52555;DHT22;38455;52.710;6.502;2023-03-11T05:13:33;-2.00;99.90
52555;DHT22;38455;52.710;6.502;2023-03-11T05:15:59;-2.00;99.90
52555;DHT22;38455;52.710;6.502;2023-03-11T05:18:25;-2.00;99.90
52555;DHT22;38455;52.710;6.502;2023-03-11T05:20:51;-2.00;99.90
52555;DHT22;38455;52.710;6.502;2023-03-11T05:23:18;-2.10;99.90
52555;DHT22;38455;52.710;6.502;2023-03-11T05:25:43;-2.10;99.90
52555;DHT22;38455;52.710;6.502;2023-03-11T05:28:09;-2.10;99.90
52555;DHT22;38455;52.710;6.502;2023-03-11T05:30:35;-2.00;99.90
52555;DHT22;38455;52.710;6.502;2023-03-11T05:33:00;-2.10;99.90
52555;DHT22;38455;52.710;6.502;2023-03-11T05:35:26;-2.10;99.90
52555;DHT22;38455;52.710;6.502;2023-03-11T05:37:52;-2.10;99.90
52555;DHT22;38455;52.710;6.502;2023-03-11T05:40:19;-2.30;99.90
52555;DHT22;38455;52.710;6.502;2023-03-11T05:42:45;-2.30;99.90
52555;DHT22;38455;52.710;6.502;2023-03-11T05:45:11;-2.40;99.90
52555;DHT22;38455;52.710;6.502;2023-03-11T05:47:36;-2.40;99.90
52555;DHT22;38455;52.710;6.502;2023-03-11T05:50:03;-2.50;99.90
52555;DHT22;38455;52.710;6.502;2023-03-11T05:52:29;-2.50;99.90
52555;DHT22;38455;52.710;6.502;2023-03-11T05:54:57;-2.50;99.90
52555;DHT22;38455;52.710;6.502;2023-03-11T05:57:22;-2.50;99.90
52555;DHT22;38455;52.710;6.502;2023-03-11T05:59:48;-2.50;99.90
52555;DHT22;38455;52.710;6.502;2023-03-11T06:02:14;-2.40;99.90
52555;DHT22;38455;52.710;6.502;2023-03-11T06:04:40;-2.40;99.90
52555;DHT22;38455;52.710;6.502;2023-03-11T06:07:05;-2.40;99.90
52555;DHT22;38455;52.710;6.502;2023-03-11T06:09:31;-2.50;99.90
52555;DHT22;38455;52.710;6.502;2023-03-11T06:11:56;-2.50;99.90
52555;DHT22;38455;52.710;6.502;2023-03-11T06:14:22;-2.60;99.90
52555;DHT22;38455;52.710;6.502;2023-03-11T06:16:48;-2.60;99.90
52555;DHT22;38455;52.710;6.502;2023-03-11T06:19:13;-2.60;99.90
52555;DHT22;38455;52.710;6.502;2023-03-11T06:21:39;-2.60;99.90
52555;DHT22;38455;52.710;6.502;2023-03-11T06:24:05;-2.60;99.90
52555;DHT22;38455;52.710;6.502;2023-03-11T06:26:31;-2.60;99.90
52555;DHT22;38455;52.710;6.502;2023-03-11T06:28:57;-2.60;99.90
52555;DHT22;38455;52.710;6.502;2023-03-11T06:31:24;-2.50;99.90
52555;DHT22;38455;52.710;6.502;2023-03-11T06:33:52;-2.50;99.90
52555;DHT22;38455;52.710;6.502;2023-03-11T06:36:18;-2.50;99.90
52555;DHT22;38455;52.710;6.502;2023-03-11T06:38:44;-2.50;99.90
52555;DHT22;38455;52.710;6.502;2023-03-11T06:41:11;-2.50;99.90
52555;DHT22;38455;52.710;6.502;2023-03-11T06:43:38;-2.50;99.90
52555;DHT22;38455;52.710;6.502;2023-03-11T06:46:11;-2.50;99.90
52555;DHT22;38455;52.710;6.502;2023-03-11T06:48:38;-2.50;99.90
52555;DHT22;38455;52.710;6.502;2023-03-11T06:51:04;-2.60;99.90
52555;DHT22;38455;52.710;6.502;2023-03-11T06:53:30;-2.50;99.90
52555;DHT22;38455;52.710;6.502;2023-03-11T06:58:30;-2.50;99.90
52555;DHT22;38455;52.710;6.502;2023-03-11T07:01:03;-2.40;99.90
52555;DHT22;38455;52.710;6.502;2023-03-11T07:03:29;-2.30;99.90
52555;DHT22;38455;52.710;6.502;2023-03-11T07:05:56;-2.20;99.90
52555;DHT22;38455;52.710;6.502;2023-03-11T07:08:24;-2.10;99.90
52555;DHT22;38455;52.710;6.502;2023-03-11T07:13:26;-1.90;99.90
52555;DHT22;38455;52.710;6.502;2023-03-11T07:15:59;-1.80;99.90
52555;DHT22;38455;52.710;6.502;2023-03-11T07:18:25;-1.60;99.90
52555;DHT22;38455;52.710;6.502;2023-03-11T07:20:51;-1.40;99.90
52555;DHT22;38455;52.710;6.502;2023-03-11T07:23:17;-1.40;99.90
52555;DHT22;38455;52.710;6.502;2023-03-11T07:25:46;-0.40;99.90
52555;DHT22;38455;52.710;6.502;2023-03-11T07:28:12;1.10;99.90
52555;DHT22;38455;52.710;6.502;2023-03-11T07:30:38;2.70;99.90
52555;DHT22;38455;52.710;6.502;2023-03-11T07:33:04;3.90;99.90
52555;DHT22;38455;52.710;6.502;2023-03-11T07:35:30;4.90;99.90
52555;DHT22;38455;52.710;6.502;2023-03-11T07:37:56;5.80;99.90
52555;DHT22;38455;52.710;6.502;2023-03-11T07:40:21;6.30;99.90
52555;DHT22;38455;52.710;6.502;2023-03-11T07:42:47;7.00;99.90
52555;DHT22;38455;52.710;6.502;2023-03-11T07:45:13;7.50;99.90
52555;DHT22;38455;52.710;6.502;2023-03-11T07:47:39;7.80;99.90
52555;DHT22;38455;52.710;6.502;2023-03-11T07:50:05;8.30;99.90
52555;DHT22;38455;52.710;6.502;2023-03-11T07:52:31;8.70;99.90
52555;DHT22;38455;52.710;6.502;2023-03-11T07:54:57;9.30;99.90
52555;DHT22;38455;52.710;6.502;2023-03-11T07:57:23;9.40;99.90
52555;DHT22;38455;52.710;6.502;2023-03-11T07:59:49;9.60;99.90
52555;DHT22;38455;52.710;6.502;2023-03-11T08:02:15;9.90;99.90
52555;DHT22;38455;52.710;6.502;2023-03-11T08:04:40;10.00;99.90
52555;DHT22;38455;52.710;6.502;2023-03-11T08:07:06;10.70;99.90
52555;DHT22;38455;52.710;6.502;2023-03-11T08:09:34;11.30;99.90
52555;DHT22;38455;52.710;6.502;2023-03-11T08:11:59;11.70;99.90
52555;DHT22;38455;52.710;6.502;2023-03-11T08:14:25;11.90;99.90
52555;DHT22;38455;52.710;6.502;2023-03-11T08:16:51;12.30;99.90
52555;DHT22;38455;52.710;6.502;2023-03-11T08:19:16;12.90;99.90
52555;DHT22;38455;52.710;6.502;2023-03-11T08:21:42;13.00;99.90
52555;DHT22;38455;52.710;6.502;2023-03-11T08:24:10;13.00;99.90
52555;DHT22;38455;52.710;6.502;2023-03-11T08:26:37;13.10;99.90
52555;DHT22;38455;52.710;6.502;2023-03-11T08:29:03;13.60;99.90
52555;DHT22;38455;52.710;6.502;2023-03-11T08:31:30;13.50;99.90
52555;DHT22;38455;52.710;6.502;2023-03-11T08:34:02;13.40;99.40
52555;DHT22;38455;52.710;6.502;2023-03-11T08:36:28;13.50;97.50
52555;DHT22;38455;52.710;6.502;2023-03-11T08:38:54;13.70;99.90
52555;DHT22;38455;52.710;6.502;2023-03-11T08:41:20;13.90;99.90
52555;DHT22;38455;52.710;6.502;2023-03-11T08:43:46;14.50;99.90
52555;DHT22;38455;52.710;6.502;2023-03-11T08:46:32;14.70;98.60
52555;DHT22;38455;52.710;6.502;2023-03-11T08:48:59;14.70;86.70
52555;DHT22;38455;52.710;6.502;2023-03-11T08:51:25;15.00;94.80
52555;DHT22;38455;52.710;6.502;2023-03-11T08:53:52;15.20;93.10
52555;DHT22;38455;52.710;6.502;2023-03-11T08:56:18;15.70;91.70
52555;DHT22;38455;52.710;6.502;2023-03-11T08:58:44;15.70;91.30
52555;DHT22;38455;52.710;6.502;2023-03-11T09:01:11;16.10;90.10
52555;DHT22;38455;52.710;6.502;2023-03-11T09:03:37;16.40;84.50
52555;DHT22;38455;52.710;6.502;2023-03-11T09:06:05;16.00;87.30
52555;DHT22;38455;52.710;6.502;2023-03-11T09:08:32;16.40;82.10
52555;DHT22;38455;52.710;6.502;2023-03-11T09:10:58;16.10;86.20
52555;DHT22;38455;52.710;6.502;2023-03-11T09:13:23;16.20;83.80
52555;DHT22;38455;52.710;6.502;2023-03-11T09:15:50;16.50;84.80
52555;DHT22;38455;52.710;6.502;2023-03-11T09:18:16;16.60;83.90
52555;DHT22;38455;52.710;6.502;2023-03-11T09:20:43;16.50;82.20
52555;DHT22;38455;52.710;6.502;2023-03-11T09:23:09;16.50;81.00
52555;DHT22;38455;52.710;6.502;2023-03-11T09:25:35;16.10;81.00
52555;DHT22;38455;52.710;6.502;2023-03-11T09:28:01;16.70;82.00
52555;DHT22;38455;52.710;6.502;2023-03-11T09:30:26;17.00;80.10
52555;DHT22;38455;52.710;6.502;2023-03-11T09:32:52;17.40;79.10
52555;DHT22;38455;52.710;6.502;2023-03-11T09:35:18;16.90;77.70
52555;DHT22;38455;52.710;6.502;2023-03-11T09:37:44;17.30;79.10
52555;DHT22;38455;52.710;6.502;2023-03-11T09:40:15;17.40;77.90
52555;DHT22;38455;52.710;6.502;2023-03-11T09:45:22;17.90;76.10
52555;DHT22;38455;52.710;6.502;2023-03-11T09:48:06;17.90;76.00
52555;DHT22;38455;52.710;6.502;2023-03-11T09:53:51;17.90;74.90
52555;DHT22;38455;52.710;6.502;2023-03-11T09:56:19;17.50;75.40
52555;DHT22;38455;52.710;6.502;2023-03-11T10:01:24;17.10;76.60
52555;DHT22;38455;52.710;6.502;2023-03-11T10:03:51;17.00;72.40
52555;DHT22;38455;52.710;6.502;2023-03-11T10:06:22;17.10;74.10
52555;DHT22;38455;52.710;6.502;2023-03-11T10:17:35;17.40;71.60
52555;DHT22;38455;52.710;6.502;2023-03-11T10:28:09;17.70;71.60
52555;DHT22;38455;52.710;6.502;2023-03-11T10:35:45;17.60;70.70
52555;DHT22;38455;52.710;6.502;2023-03-11T10:40:49;17.90;73.30
52555;DHT22;38455;52.710;6.502;2023-03-11T10:43:18;17.90;72.10
52555;DHT22;38455;52.710;6.502;2023-03-11T10:45:47;18.30;70.80
52555;DHT22;38455;52.710;6.502;2023-03-11T10:48:17;17.90;71.00
52555;DHT22;38455;52.710;6.502;2023-03-11T10:51:02;18.10;72.00
52555;DHT22;38455;52.710;6.502;2023-03-11T10:53:46;18.00;69.50
52555;DHT22;38455;52.710;6.502;2023-03-11T10:56:33;19.00;67.50
52555;DHT22;38455;52.710;6.502;2023-03-11T10:59:02;18.80;66.90
52555;DHT22;38455;52.710;6.502;2023-03-11T11:01:28;19.00;68.30
52555;DHT22;38455;52.710;6.502;2023-03-11T11:03:56;19.70;66.80
52555;DHT22;38455;52.710;6.502;2023-03-11T11:06:27;19.20;67.80
52555;DHT22;38455;52.710;6.502;2023-03-11T11:09:25;19.40;68.00
52555;DHT22;38455;52.710;6.502;2023-03-11T11:12:11;19.00;65.10
52555;DHT22;38455;52.710;6.502;2023-03-11T11:14:48;19.00;66.00
52555;DHT22;38455;52.710;6.502;2023-03-11T11:17:29;19.20;66.40
52555;DHT22;38455;52.710;6.502;2023-03-11T11:19:56;19.60;62.50
52555;DHT22;38455;52.710;6.502;2023-03-11T11:22:23;20.30;63.10
52555;DHT22;38455;52.710;6.502;2023-03-11T11:24:52;19.80;65.40
52555;DHT22;38455;52.710;6.502;2023-03-11T11:29:44;20.20;63.30
52555;DHT22;38455;52.710;6.502;2023-03-11T11:34:40;20.30;61.30
52555;DHT22;38455;52.710;6.502;2023-03-11T11:37:05;20.40;61.70
52555;DHT22;38455;52.710;6.502;2023-03-11T11:39:49;20.60;59.40
52555;DHT22;38455;52.710;6.502;2023-03-11T11:42:19;19.40;61.00
52555;DHT22;38455;52.710;6.502;2023-03-11T11:44:51;19.00;59.80
52555;DHT22;38455;52.710;6.502;2023-03-11T11:47:22;18.70;62.10
52555;DHT22;38455;52.710;6.502;2023-03-11T11:49:55;18.20;63.00
52555;DHT22;38455;52.710;6.502;2023-03-11T11:52:26;17.90;63.80
52555;DHT22;38455;52.710;6.502;2023-03-11T11:57:26;17.30;62.50
52555;DHT22;38455;52.710;6.502;2023-03-11T11:59:52;17.90;63.00
52555;DHT22;38455;52.710;6.502;2023-03-11T12:05:08;18.50;60.80
52555;DHT22;38455;52.710;6.502;2023-03-11T12:13:15;17.80;59.90
52555;DHT22;38455;52.710;6.502;2023-03-11T12:15:52;18.50;58.50
52555;DHT22;38455;52.710;6.502;2023-03-11T12:20:55;17.50;60.60
52555;DHT22;38455;52.710;6.502;2023-03-11T12:26:21;17.80;60.10
52555;DHT22;38455;52.710;6.502;2023-03-11T12:28:55;17.70;60.10
52555;DHT22;38455;52.710;6.502;2023-03-11T12:31:24;18.00;58.20
52555;DHT22;38455;52.710;6.502;2023-03-11T12:33:57;18.30;59.60
52555;DHT22;38455;52.710;6.502;2023-03-11T12:36:33;18.70;57.10
52555;DHT22;38455;52.710;6.502;2023-03-11T12:39:01;19.30;56.60
52555;DHT22;38455;52.710;6.502;2023-03-11T12:41:39;18.90;57.70
52555;DHT22;38455;52.710;6.502;2023-03-11T12:44:26;19.10;55.90
52555;DHT22;38455;52.710;6.502;2023-03-11T12:49:41;17.30;59.30
52555;DHT22;38455;52.710;6.502;2023-03-11T12:54:37;16.80;57.10
52555;DHT22;38455;52.710;6.502;2023-03-11T13:02:55;14.40;63.10
52555;DHT22;38455;52.710;6.502;2023-03-11T13:08:07;14.60;62.00
52555;DHT22;38455;52.710;6.502;2023-03-11T13:16:34;12.80;64.30
52555;DHT22;38455;52.710;6.502;2023-03-11T13:18:44;11.90;65.40
52555;DHT22;38455;52.710;6.502;2023-03-11T13:27:04;11.30;66.10
52555;DHT22;38455;52.710;6.502;2023-03-11T13:30:22;11.50;70.00
52555;DHT22;38455;52.710;6.502;2023-03-11T13:38:16;11.00;69.90
52555;DHT22;38455;52.710;6.502;2023-03-11T13:40:45;11.10;71.80
52555;DHT22;38455;52.710;6.502;2023-03-11T13:43:24;11.10;70.60
52555;DHT22;38455;52.710;6.502;2023-03-11T13:48:30;11.00;65.90
52555;DHT22;38455;52.710;6.502;2023-03-11T13:51:13;11.00;65.00
52555;DHT22;38455;52.710;6.502;2023-03-11T13:53:47;11.20;67.20
52555;DHT22;38455;52.710;6.502;2023-03-11T13:56:25;11.50;66.80
52555;DHT22;38455;52.710;6.502;2023-03-11T13:58:51;11.60;66.40
52555;DHT22;38455;52.710;6.502;2023-03-11T14:01:17;12.20;66.50
52555;DHT22;38455;52.710;6.502;2023-03-11T14:03:45;12.70;64.80
52555;DHT22;38455;52.710;6.502;2023-03-11T14:06:14;12.90;64.30
52555;DHT22;38455;52.710;6.502;2023-03-11T14:08:40;12.90;65.20
52555;DHT22;38455;52.710;6.502;2023-03-11T14:13:42;13.20;64.00
52555;DHT22;38455;52.710;6.502;2023-03-11T14:16:23;13.10;64.50
52555;DHT22;38455;52.710;6.502;2023-03-11T14:19:12;12.90;63.60
52555;DHT22;38455;52.710;6.502;2023-03-11T14:21:42;13.50;63.20
52555;DHT22;38455;52.710;6.502;2023-03-11T14:24:37;13.80;63.10
52555;DHT22;38455;52.710;6.502;2023-03-11T14:27:07;13.40;63.00
52555;DHT22;38455;52.710;6.502;2023-03-11T14:29:38;12.60;63.70
52555;DHT22;38455;52.710;6.502;2023-03-11T14:32:31;11.80;63.80
52555;DHT22;38455;52.710;6.502;2023-03-11T14:34:57;11.20;65.30
52555;DHT22;38455;52.710;6.502;2023-03-11T14:37:29;10.70;67.90
52555;DHT22;38455;52.710;6.502;2023-03-11T14:39:55;10.40;68.40
52555;DHT22;38455;52.710;6.502;2023-03-11T14:42:35;10.30;70.10
52555;DHT22;38455;52.710;6.502;2023-03-11T14:45:03;10.30;69.50
52555;DHT22;38455;52.710;6.502;2023-03-11T14:50:00;9.70;71.80
52555;DHT22;38455;52.710;6.502;2023-03-11T14:52:42;9.10;72.30
52555;DHT22;38455;52.710;6.502;2023-03-11T14:55:20;9.20;74.10
52555;DHT22;38455;52.710;6.502;2023-03-11T14:57:50;9.00;76.20
52555;DHT22;38455;52.710;6.502;2023-03-11T15:00:22;8.80;75.00
52555;DHT22;38455;52.710;6.502;2023-03-11T15:05:47;8.60;76.40
52555;DHT22;38455;52.710;6.502;2023-03-11T15:08:17;8.50;78.60
52555;DHT22;38455;52.710;6.502;2023-03-11T15:13:35;8.30;79.50
52555;DHT22;38455;52.710;6.502;2023-03-11T15:16:03;8.50;81.10
52555;DHT22;38455;52.710;6.502;2023-03-11T15:18:35;8.40;81.20
52555;DHT22;38455;52.710;6.502;2023-03-11T15:21:22;8.50;82.40
52555;DHT22;38455;52.710;6.502;2023-03-11T15:23:51;8.40;80.90
52555;DHT22;38455;52.710;6.502;2023-03-11T15:26:23;8.30;81.00
52555;DHT22;38455;52.710;6.502;2023-03-11T15:29:11;8.40;80.60
52555;DHT22;38455;52.710;6.502;2023-03-11T15:31:39;8.50;81.70
52555;DHT22;38455;52.710;6.502;2023-03-11T15:36:53;8.40;82.20
52555;DHT22;38455;52.710;6.502;2023-03-11T15:44:47;8.40;75.70
52555;DHT22;38455;52.710;6.502;2023-03-11T15:47:16;8.40;74.90
52555;DHT22;38455;52.710;6.502;2023-03-11T15:49:41;8.20;74.30
52555;DHT22;38455;52.710;6.502;2023-03-11T15:52:08;8.20;73.00
52555;DHT22;38455;52.710;6.502;2023-03-11T15:54:34;7.90;73.60
52555;DHT22;38455;52.710;6.502;2023-03-11T15:57:00;7.80;73.80
52555;DHT22;38455;52.710;6.502;2023-03-11T15:59:27;7.60;74.90
52555;DHT22;38455;52.710;6.502;2023-03-11T16:01:53;7.70;76.00
52555;DHT22;38455;52.710;6.502;2023-03-11T16:04:19;7.60;77.50
52555;DHT22;38455;52.710;6.502;2023-03-11T16:06:46;7.50;77.70
52555;DHT22;38455;52.710;6.502;2023-03-11T16:09:12;7.40;78.10
52555;DHT22;38455;52.710;6.502;2023-03-11T16:11:39;7.50;79.50
52555;DHT22;38455;52.710;6.502;2023-03-11T16:14:08;7.40;81.30
52555;DHT22;38455;52.710;6.502;2023-03-11T16:16:34;7.50;82.60
52555;DHT22;38455;52.710;6.502;2023-03-11T16:19:00;7.60;83.90
52555;DHT22;38455;52.710;6.502;2023-03-11T16:21:33;7.70;84.30
52555;DHT22;38455;52.710;6.502;2023-03-11T16:23:59;7.70;84.20
52555;DHT22;38455;52.710;6.502;2023-03-11T16:26:25;7.70;85.00
52555;DHT22;38455;52.710;6.502;2023-03-11T16:28:51;7.80;84.50
52555;DHT22;38455;52.710;6.502;2023-03-11T16:31:16;7.80;84.70
52555;DHT22;38455;52.710;6.502;2023-03-11T16:33:42;7.80;84.30
52555;DHT22;38455;52.710;6.502;2023-03-11T16:36:09;7.80;84.90
52555;DHT22;38455;52.710;6.502;2023-03-11T16:38:43;7.50;88.10
52555;DHT22;38455;52.710;6.502;2023-03-11T16:41:09;7.30;91.40
52555;DHT22;38455;52.710;6.502;2023-03-11T16:43:35;7.20;91.90
52555;DHT22;38455;52.710;6.502;2023-03-11T16:46:01;7.00;94.10
52555;DHT22;38455;52.710;6.502;2023-03-11T16:48:26;7.00;95.30
52555;DHT22;38455;52.710;6.502;2023-03-11T16:50:52;6.70;97.00
52555;DHT22;38455;52.710;6.502;2023-03-11T16:53:17;6.70;98.00
52555;DHT22;38455;52.710;6.502;2023-03-11T16:55:44;6.60;99.80
52555;DHT22;38455;52.710;6.502;2023-03-11T16:58:11;6.60;99.90
52555;DHT22;38455;52.710;6.502;2023-03-11T17:00:36;6.40;99.90
52555;DHT22;38455;52.710;6.502;2023-03-11T17:03:02;6.40;99.90
52555;DHT22;38455;52.710;6.502;2023-03-11T17:05:29;6.30;99.90
52555;DHT22;38455;52.710;6.502;2023-03-11T17:07:56;6.10;99.90
52555;DHT22;38455;52.710;6.502;2023-03-11T17:10:26;6.10;99.90
52555;DHT22;38455;52.710;6.502;2023-03-11T17:12:53;5.80;99.90
52555;DHT22;38455;52.710;6.502;2023-03-11T17:15:18;5.70;99.90
52555;DHT22;38455;52.710;6.502;2023-03-11T17:17:44;5.70;99.90
52555;DHT22;38455;52.710;6.502;2023-03-11T17:20:10;5.70;99.90
52555;DHT22;38455;52.710;6.502;2023-03-11T17:22:36;5.70;99.90
52555;DHT22;38455;52.710;6.502;2023-03-11T17:25:02;5.70;99.90
52555;DHT22;38455;52.710;6.502;2023-03-11T17:27:29;5.60;99.90
52555;DHT22;38455;52.710;6.502;2023-03-11T17:29:58;5.60;99.90
52555;DHT22;38455;52.710;6.502;2023-03-11T17:32:24;5.60;99.90
52555;DHT22;38455;52.710;6.502;2023-03-11T17:34:50;5.40;99.90
52555;DHT22;38455;52.710;6.502;2023-03-11T17:37:16;5.50;99.90
52555;DHT22;38455;52.710;6.502;2023-03-11T17:39:43;5.50;99.90